Terminal Aerodrome Forecast
Issued by NWS

Home | Current Version | Previous Version | Text Only | Print | Product List | Glossary On
Versions: 1 2 3 4 5 6 7 8 9 10 11 12 13 14 15
000
FTUS46 KSGX 201726
TAFSNA
TAF
KSNA 201726Z 2018/2118 VRB04KT P6SM SCT025
     FM202000 22009KT P6SM SKC
     FM210300 VRB04KT P6SM SKC
     FM210900 VRB04KT P6SM BKN010
     FM211400 VRB04KT P6SM SCT010=

USA.gov is the U.S. government's official web portal to all federal, state and local government web resources and services.